Pawleys Island, South Carolina
Current Conditions -  °F | °C
As of 4:35 AM on Thursday 18 Dec 2014 (Local Time) from KMYR Reporting Station
Clear Clear  
Wind Chill:   Ceiling: Unl
Heat Index:   Visibility: 10mi
Dew Point:   Wind: 0mph
Humidity: 93%   Direction: NA
Pressure: 30.1"   Gusts: NA
Location:  33.43°N, 79.12°W
Report Text: KMYR 180935Z AUTO 00000KT 10SM CLR 03/02 A3010 RMK AO1
Loading
Personal Weather Stations






























Interactive Weather Map New forecast layout! Learn more

10-Day Weather Forecast

Advertisements
Track Severe Weather on mobile